sensor_id;sensor_type;location;lat;lon;timestamp;P1;durP1;ratioP1;P2;durP2;ratioP2
21671;SDS011;10997;52.242;8.168;2024-01-30T00:00:06;22.50;;;15.65;;
21671;SDS011;10997;52.242;8.168;2024-01-30T00:05:08;21.27;;;14.98;;
21671;SDS011;10997;52.242;8.168;2024-01-30T00:10:08;20.63;;;13.68;;
21671;SDS011;10997;52.242;8.168;2024-01-30T00:15:09;22.05;;;14.18;;
21671;SDS011;10997;52.242;8.168;2024-01-30T00:20:10;22.88;;;15.38;;
21671;SDS011;10997;52.242;8.168;2024-01-30T00:25:11;22.08;;;14.50;;
21671;SDS011;10997;52.242;8.168;2024-01-30T00:30:11;19.70;;;13.18;;
21671;SDS011;10997;52.242;8.168;2024-01-30T00:35:12;19.92;;;14.15;;
21671;SDS011;10997;52.242;8.168;2024-01-30T00:40:13;20.25;;;14.23;;
21671;SDS011;10997;52.242;8.168;2024-01-30T00:45:15;21.27;;;14.65;;
21671;SDS011;10997;52.242;8.168;2024-01-30T00:50:16;22.30;;;14.43;;
21671;SDS011;10997;52.242;8.168;2024-01-30T00:55:17;19.30;;;14.23;;
21671;SDS011;10997;52.242;8.168;2024-01-30T01:00:18;23.73;;;15.05;;
21671;SDS011;10997;52.242;8.168;2024-01-30T01:05:20;22.23;;;14.40;;
21671;SDS011;10997;52.242;8.168;2024-01-30T01:10:21;23.15;;;15.70;;
21671;SDS011;10997;52.242;8.168;2024-01-30T01:15:22;20.45;;;14.45;;
21671;SDS011;10997;52.242;8.168;2024-01-30T01:20:23;23.95;;;15.80;;
21671;SDS011;10997;52.242;8.168;2024-01-30T01:25:23;20.63;;;14.98;;
21671;SDS011;10997;52.242;8.168;2024-01-30T01:30:24;21.58;;;14.73;;
21671;SDS011;10997;52.242;8.168;2024-01-30T01:35:25;22.92;;;15.52;;
21671;SDS011;10997;52.242;8.168;2024-01-30T01:40:26;19.90;;;14.80;;
21671;SDS011;10997;52.242;8.168;2024-01-30T01:45:27;18.23;;;14.70;;
21671;SDS011;10997;52.242;8.168;2024-01-30T01:50:28;20.65;;;14.88;;
21671;SDS011;10997;52.242;8.168;2024-01-30T01:55:29;21.08;;;14.52;;
21671;SDS011;10997;52.242;8.168;2024-01-30T02:00:30;20.85;;;14.35;;
21671;SDS011;10997;52.242;8.168;2024-01-30T02:05:31;25.50;;;14.27;;
21671;SDS011;10997;52.242;8.168;2024-01-30T02:10:32;22.40;;;14.65;;
21671;SDS011;10997;52.242;8.168;2024-01-30T02:15:33;19.73;;;13.57;;
21671;SDS011;10997;52.242;8.168;2024-01-30T02:20:34;21.30;;;13.98;;
21671;SDS011;10997;52.242;8.168;2024-01-30T02:25:40;21.98;;;14.32;;
21671;SDS011;10997;52.242;8.168;2024-01-30T02:30:44;19.70;;;14.52;;
21671;SDS011;10997;52.242;8.168;2024-01-30T02:35:45;23.50;;;15.40;;
21671;SDS011;10997;52.242;8.168;2024-01-30T02:40:46;22.00;;;14.55;;
21671;SDS011;10997;52.242;8.168;2024-01-30T02:45:47;23.88;;;14.93;;
21671;SDS011;10997;52.242;8.168;2024-01-30T02:50:47;22.38;;;14.32;;
21671;SDS011;10997;52.242;8.168;2024-01-30T02:55:48;21.98;;;15.25;;
21671;SDS011;10997;52.242;8.168;2024-01-30T03:00:48;23.40;;;14.48;;
21671;SDS011;10997;52.242;8.168;2024-01-30T03:05:49;21.67;;;15.38;;
21671;SDS011;10997;52.242;8.168;2024-01-30T03:10:50;25.05;;;15.15;;
21671;SDS011;10997;52.242;8.168;2024-01-30T03:15:50;21.10;;;14.63;;
21671;SDS011;10997;52.242;8.168;2024-01-30T03:20:51;21.67;;;15.00;;
21671;SDS011;10997;52.242;8.168;2024-01-30T03:25:52;23.30;;;15.35;;
21671;SDS011;10997;52.242;8.168;2024-01-30T03:30:53;22.25;;;14.32;;
21671;SDS011;10997;52.242;8.168;2024-01-30T03:35:53;24.40;;;15.75;;
21671;SDS011;10997;52.242;8.168;2024-01-30T03:40:54;21.20;;;13.88;;
21671;SDS011;10997;52.242;8.168;2024-01-30T03:45:54;22.42;;;14.20;;
21671;SDS011;10997;52.242;8.168;2024-01-30T03:50:55;21.77;;;14.32;;
21671;SDS011;10997;52.242;8.168;2024-01-30T03:55:56;19.95;;;13.60;;
21671;SDS011;10997;52.242;8.168;2024-01-30T04:00:56;21.83;;;14.30;;
21671;SDS011;10997;52.242;8.168;2024-01-30T04:05:57;19.40;;;13.80;;
21671;SDS011;10997;52.242;8.168;2024-01-30T04:10:58;20.80;;;14.07;;
21671;SDS011;10997;52.242;8.168;2024-01-30T04:15:59;21.48;;;14.27;;
21671;SDS011;10997;52.242;8.168;2024-01-30T04:21:03;23.25;;;14.75;;
21671;SDS011;10997;52.242;8.168;2024-01-30T04:26:04;20.73;;;14.23;;
21671;SDS011;10997;52.242;8.168;2024-01-30T04:31:04;22.20;;;14.73;;
21671;SDS011;10997;52.242;8.168;2024-01-30T04:36:07;20.75;;;13.93;;
21671;SDS011;10997;52.242;8.168;2024-01-30T04:41:12;23.02;;;14.65;;
21671;SDS011;10997;52.242;8.168;2024-01-30T04:46:12;21.58;;;14.13;;
21671;SDS011;10997;52.242;8.168;2024-01-30T04:51:13;22.70;;;13.90;;
21671;SDS011;10997;52.242;8.168;2024-01-30T04:56:14;19.80;;;13.60;;
21671;SDS011;10997;52.242;8.168;2024-01-30T05:01:15;22.42;;;14.38;;
21671;SDS011;10997;52.242;8.168;2024-01-30T05:06:26;20.95;;;14.65;;
21671;SDS011;10997;52.242;8.168;2024-01-30T05:11:27;20.58;;;14.02;;
21671;SDS011;10997;52.242;8.168;2024-01-30T05:16:27;20.90;;;14.68;;
21671;SDS011;10997;52.242;8.168;2024-01-30T05:21:28;24.17;;;14.75;;
21671;SDS011;10997;52.242;8.168;2024-01-30T05:26:28;23.55;;;14.63;;
21671;SDS011;10997;52.242;8.168;2024-01-30T05:31:30;22.27;;;14.05;;
21671;SDS011;10997;52.242;8.168;2024-01-30T05:36:30;21.00;;;13.63;;
21671;SDS011;10997;52.242;8.168;2024-01-30T05:41:31;23.58;;;13.88;;
21671;SDS011;10997;52.242;8.168;2024-01-30T05:46:33;21.63;;;14.27;;
21671;SDS011;10997;52.242;8.168;2024-01-30T05:51:33;22.10;;;14.10;;
21671;SDS011;10997;52.242;8.168;2024-01-30T05:56:34;19.77;;;13.60;;
21671;SDS011;10997;52.242;8.168;2024-01-30T06:01:35;19.23;;;13.05;;
21671;SDS011;10997;52.242;8.168;2024-01-30T06:06:35;19.10;;;13.20;;
21671;SDS011;10997;52.242;8.168;2024-01-30T06:11:36;19.77;;;12.80;;
21671;SDS011;10997;52.242;8.168;2024-01-30T06:16:37;18.15;;;13.07;;
21671;SDS011;10997;52.242;8.168;2024-01-30T06:21:37;22.63;;;13.27;;
21671;SDS011;10997;52.242;8.168;2024-01-30T06:26:38;20.10;;;12.35;;
21671;SDS011;10997;52.242;8.168;2024-01-30T06:31:42;20.08;;;12.13;;
21671;SDS011;10997;52.242;8.168;2024-01-30T06:36:42;16.88;;;12.50;;
21671;SDS011;10997;52.242;8.168;2024-01-30T06:41:43;17.85;;;12.65;;
21671;SDS011;10997;52.242;8.168;2024-01-30T06:46:43;18.92;;;12.52;;
21671;SDS011;10997;52.242;8.168;2024-01-30T06:51:44;19.60;;;12.32;;
21671;SDS011;10997;52.242;8.168;2024-01-30T06:56:45;17.20;;;11.48;;
21671;SDS011;10997;52.242;8.168;2024-01-30T07:01:45;17.42;;;11.57;;
21671;SDS011;10997;52.242;8.168;2024-01-30T07:06:46;17.35;;;12.23;;
21671;SDS011;10997;52.242;8.168;2024-01-30T07:11:47;16.75;;;11.07;;
21671;SDS011;10997;52.242;8.168;2024-01-30T07:16:47;21.88;;;12.27;;
21671;SDS011;10997;52.242;8.168;2024-01-30T07:21:48;18.23;;;12.13;;
21671;SDS011;10997;52.242;8.168;2024-01-30T07:26:48;17.95;;;11.55;;
21671;SDS011;10997;52.242;8.168;2024-01-30T07:31:49;17.83;;;12.13;;
21671;SDS011;10997;52.242;8.168;2024-01-30T07:36:50;20.10;;;11.45;;
21671;SDS011;10997;52.242;8.168;2024-01-30T07:41:50;15.02;;;11.00;;
21671;SDS011;10997;52.242;8.168;2024-01-30T07:46:51;14.95;;;11.18;;
21671;SDS011;10997;52.242;8.168;2024-01-30T07:51:52;19.63;;;12.10;;
21671;SDS011;10997;52.242;8.168;2024-01-30T07:56:52;16.73;;;10.80;;
21671;SDS011;10997;52.242;8.168;2024-01-30T08:01:53;14.43;;;10.60;;
21671;SDS011;10997;52.242;8.168;2024-01-30T08:06:54;19.83;;;11.93;;
21671;SDS011;10997;52.242;8.168;2024-01-30T08:11:54;17.45;;;10.10;;
21671;SDS011;10997;52.242;8.168;2024-01-30T08:16:55;16.30;;;10.13;;
21671;SDS011;10997;52.242;8.168;2024-01-30T08:21:56;16.67;;;10.45;;
21671;SDS011;10997;52.242;8.168;2024-01-30T08:26:56;13.55;;;9.80;;
21671;SDS011;10997;52.242;8.168;2024-01-30T08:31:58;17.35;;;9.93;;
21671;SDS011;10997;52.242;8.168;2024-01-30T08:37:00;15.70;;;10.30;;
21671;SDS011;10997;52.242;8.168;2024-01-30T08:42:01;15.95;;;9.27;;
21671;SDS011;10997;52.242;8.168;2024-01-30T08:47:01;11.00;;;8.65;;
21671;SDS011;10997;52.242;8.168;2024-01-30T08:52:03;13.07;;;9.07;;
21671;SDS011;10997;52.242;8.168;2024-01-30T08:57:04;12.63;;;9.10;;
21671;SDS011;10997;52.242;8.168;2024-01-30T09:02:04;15.25;;;8.30;;
21671;SDS011;10997;52.242;8.168;2024-01-30T09:07:05;13.10;;;8.13;;
21671;SDS011;10997;52.242;8.168;2024-01-30T09:12:08;13.07;;;8.43;;
21671;SDS011;10997;52.242;8.168;2024-01-30T09:17:11;12.27;;;7.97;;
21671;SDS011;10997;52.242;8.168;2024-01-30T09:22:12;15.57;;;8.38;;
21671;SDS011;10997;52.242;8.168;2024-01-30T09:27:12;10.82;;;8.35;;
21671;SDS011;10997;52.242;8.168;2024-01-30T09:32:13;11.95;;;8.20;;
21671;SDS011;10997;52.242;8.168;2024-01-30T09:37:14;14.90;;;8.30;;
21671;SDS011;10997;52.242;8.168;2024-01-30T09:42:22;13.98;;;8.27;;
21671;SDS011;10997;52.242;8.168;2024-01-30T09:47:32;13.63;;;8.52;;
21671;SDS011;10997;52.242;8.168;2024-01-30T09:52:44;13.80;;;8.68;;
21671;SDS011;10997;52.242;8.168;2024-01-30T09:57:45;10.82;;;8.27;;
21671;SDS011;10997;52.242;8.168;2024-01-30T10:02:46;15.00;;;8.73;;
21671;SDS011;10997;52.242;8.168;2024-01-30T10:07:52;12.60;;;8.13;;
21671;SDS011;10997;52.242;8.168;2024-01-30T10:12:54;11.95;;;7.65;;
21671;SDS011;10997;52.242;8.168;2024-01-30T10:17:55;14.05;;;8.02;;
21671;SDS011;10997;52.242;8.168;2024-01-30T10:22:56;12.85;;;8.20;;
21671;SDS011;10997;52.242;8.168;2024-01-30T10:27:57;15.43;;;8.15;;
21671;SDS011;10997;52.242;8.168;2024-01-30T10:32:58;14.00;;;8.25;;
21671;SDS011;10997;52.242;8.168;2024-01-30T10:37:59;12.05;;;8.20;;
21671;SDS011;10997;52.242;8.168;2024-01-30T10:43:00;12.80;;;8.02;;
21671;SDS011;10997;52.242;8.168;2024-01-30T10:48:02;13.57;;;8.50;;
21671;SDS011;10997;52.242;8.168;2024-01-30T10:53:07;15.45;;;8.38;;
21671;SDS011;10997;52.242;8.168;2024-01-30T10:58:10;13.50;;;8.70;;
21671;SDS011;10997;52.242;8.168;2024-01-30T11:03:11;14.25;;;8.98;;
21671;SDS011;10997;52.242;8.168;2024-01-30T11:08:12;13.75;;;9.20;;
21671;SDS011;10997;52.242;8.168;2024-01-30T11:13:14;14.00;;;8.82;;
21671;SDS011;10997;52.242;8.168;2024-01-30T11:18:24;15.82;;;8.85;;
21671;SDS011;10997;52.242;8.168;2024-01-30T11:23:26;15.75;;;8.85;;
21671;SDS011;10997;52.242;8.168;2024-01-30T11:28:31;15.82;;;9.30;;
21671;SDS011;10997;52.242;8.168;2024-01-30T11:33:34;17.55;;;9.60;;
21671;SDS011;10997;52.242;8.168;2024-01-30T11:38:35;15.23;;;9.90;;
21671;SDS011;10997;52.242;8.168;2024-01-30T11:43:35;14.38;;;10.00;;
21671;SDS011;10997;52.242;8.168;2024-01-30T11:48:38;16.73;;;10.38;;
21671;SDS011;10997;52.242;8.168;2024-01-30T11:53:39;15.45;;;9.68;;
21671;SDS011;10997;52.242;8.168;2024-01-30T11:58:42;13.68;;;9.27;;
21671;SDS011;10997;52.242;8.168;2024-01-30T12:03:50;18.13;;;9.73;;
21671;SDS011;10997;52.242;8.168;2024-01-30T12:09:01;15.73;;;9.77;;
21671;SDS011;10997;52.242;8.168;2024-01-30T12:14:08;16.98;;;9.55;;
21671;SDS011;10997;52.242;8.168;2024-01-30T12:19:09;14.90;;;9.80;;
21671;SDS011;10997;52.242;8.168;2024-01-30T12:24:12;14.55;;;9.40;;
21671;SDS011;10997;52.242;8.168;2024-01-30T12:29:14;17.50;;;10.00;;
21671;SDS011;10997;52.242;8.168;2024-01-30T12:34:17;16.80;;;10.32;;
21671;SDS011;10997;52.242;8.168;2024-01-30T12:39:20;15.93;;;10.70;;
21671;SDS011;10997;52.242;8.168;2024-01-30T12:44:22;18.27;;;10.38;;
21671;SDS011;10997;52.242;8.168;2024-01-30T12:49:22;15.55;;;10.48;;
21671;SDS011;10997;52.242;8.168;2024-01-30T12:54:23;13.85;;;9.90;;
21671;SDS011;10997;52.242;8.168;2024-01-30T12:59:24;20.35;;;10.00;;
21671;SDS011;10997;52.242;8.168;2024-01-30T13:04:24;16.35;;;10.40;;
21671;SDS011;10997;52.242;8.168;2024-01-30T13:09:25;17.02;;;10.65;;
21671;SDS011;10997;52.242;8.168;2024-01-30T13:14:26;21.38;;;10.82;;
21671;SDS011;10997;52.242;8.168;2024-01-30T13:19:27;16.20;;;10.88;;
21671;SDS011;10997;52.242;8.168;2024-01-30T13:24:27;17.52;;;10.55;;
21671;SDS011;10997;52.242;8.168;2024-01-30T13:29:28;17.05;;;10.73;;
21671;SDS011;10997;52.242;8.168;2024-01-30T13:34:28;16.63;;;10.18;;
21671;SDS011;10997;52.242;8.168;2024-01-30T13:39:31;17.13;;;10.68;;
21671;SDS011;10997;52.242;8.168;2024-01-30T13:44:31;18.13;;;10.40;;
21671;SDS011;10997;52.242;8.168;2024-01-30T13:49:32;19.17;;;10.25;;
21671;SDS011;10997;52.242;8.168;2024-01-30T13:54:32;17.15;;;10.15;;
21671;SDS011;10997;52.242;8.168;2024-01-30T13:59:33;18.23;;;10.02;;
21671;SDS011;10997;52.242;8.168;2024-01-30T14:04:34;20.33;;;9.68;;
21671;SDS011;10997;52.242;8.168;2024-01-30T14:09:37;17.25;;;9.70;;
21671;SDS011;10997;52.242;8.168;2024-01-30T14:14:37;16.90;;;9.80;;
21671;SDS011;10997;52.242;8.168;2024-01-30T14:19:38;15.30;;;9.00;;
21671;SDS011;10997;52.242;8.168;2024-01-30T14:24:39;13.85;;;9.18;;
21671;SDS011;10997;52.242;8.168;2024-01-30T14:29:39;16.70;;;9.38;;
21671;SDS011;10997;52.242;8.168;2024-01-30T14:34:41;15.18;;;9.85;;
21671;SDS011;10997;52.242;8.168;2024-01-30T14:39:42;15.38;;;9.23;;
21671;SDS011;10997;52.242;8.168;2024-01-30T14:44:42;19.48;;;9.85;;
21671;SDS011;10997;52.242;8.168;2024-01-30T14:49:43;14.05;;;9.30;;
21671;SDS011;10997;52.242;8.168;2024-01-30T14:54:44;16.05;;;8.55;;
21671;SDS011;10997;52.242;8.168;2024-01-30T14:59:44;15.82;;;9.18;;
21671;SDS011;10997;52.242;8.168;2024-01-30T15:04:45;14.63;;;9.13;;
21671;SDS011;10997;52.242;8.168;2024-01-30T15:09:46;15.70;;;8.77;;
21671;SDS011;10997;52.242;8.168;2024-01-30T15:14:46;17.90;;;9.77;;
21671;SDS011;10997;52.242;8.168;2024-01-30T15:19:50;13.30;;;8.95;;
21671;SDS011;10997;52.242;8.168;2024-01-30T15:24:51;15.70;;;8.63;;
21671;SDS011;10997;52.242;8.168;2024-01-30T15:29:51;16.08;;;8.23;;
21671;SDS011;10997;52.242;8.168;2024-01-30T15:34:52;14.48;;;9.18;;
21671;SDS011;10997;52.242;8.168;2024-01-30T15:39:53;14.65;;;8.63;;
21671;SDS011;10997;52.242;8.168;2024-01-30T15:44:53;12.88;;;8.55;;
21671;SDS011;10997;52.242;8.168;2024-01-30T15:49:54;15.07;;;9.27;;
21671;SDS011;10997;52.242;8.168;2024-01-30T15:54:55;15.05;;;8.77;;
21671;SDS011;10997;52.242;8.168;2024-01-30T15:59:55;13.20;;;8.82;;
21671;SDS011;10997;52.242;8.168;2024-01-30T16:04:56;13.82;;;8.45;;
21671;SDS011;10997;52.242;8.168;2024-01-30T16:09:56;15.65;;;8.15;;
21671;SDS011;10997;52.242;8.168;2024-01-30T16:14:57;14.00;;;8.07;;
21671;SDS011;10997;52.242;8.168;2024-01-30T16:19:58;15.43;;;8.38;;
21671;SDS011;10997;52.242;8.168;2024-01-30T16:24:58;12.07;;;7.93;;
21671;SDS011;10997;52.242;8.168;2024-01-30T16:29:59;14.15;;;8.40;;
21671;SDS011;10997;52.242;8.168;2024-01-30T16:35:00;15.13;;;8.35;;
21671;SDS011;10997;52.242;8.168;2024-01-30T16:40:00;13.20;;;7.25;;
21671;SDS011;10997;52.242;8.168;2024-01-30T16:45:01;7.85;;;5.95;;
21671;SDS011;10997;52.242;8.168;2024-01-30T16:50:01;11.20;;;5.95;;
21671;SDS011;10997;52.242;8.168;2024-01-30T16:55:02;9.73;;;4.82;;
21671;SDS011;10997;52.242;8.168;2024-01-30T17:00:03;7.47;;;4.00;;
21671;SDS011;10997;52.242;8.168;2024-01-30T17:05:05;8.75;;;4.57;;
21671;SDS011;10997;52.242;8.168;2024-01-30T17:10:06;8.23;;;4.53;;
21671;SDS011;10997;52.242;8.168;2024-01-30T17:15:08;8.82;;;4.22;;
21671;SDS011;10997;52.242;8.168;2024-01-30T17:20:09;6.57;;;3.70;;
21671;SDS011;10997;52.242;8.168;2024-01-30T17:25:13;4.88;;;2.95;;
21671;SDS011;10997;52.242;8.168;2024-01-30T17:30:19;6.45;;;3.50;;
21671;SDS011;10997;52.242;8.168;2024-01-30T17:35:21;5.47;;;3.00;;
21671;SDS011;10997;52.242;8.168;2024-01-30T17:40:21;4.50;;;2.60;;
21671;SDS011;10997;52.242;8.168;2024-01-30T17:45:22;5.20;;;3.05;;
21671;SDS011;10997;52.242;8.168;2024-01-30T17:50:22;5.28;;;2.65;;
21671;SDS011;10997;52.242;8.168;2024-01-30T17:55:23;3.97;;;2.45;;
21671;SDS011;10997;52.242;8.168;2024-01-30T18:00:24;5.88;;;2.50;;
21671;SDS011;10997;52.242;8.168;2024-01-30T18:05:25;2.60;;;1.58;;
21671;SDS011;10997;52.242;8.168;2024-01-30T18:10:25;5.85;;;1.98;;
21671;SDS011;10997;52.242;8.168;2024-01-30T18:15:26;5.00;;;1.88;;
21671;SDS011;10997;52.242;8.168;2024-01-30T18:20:26;4.95;;;2.20;;
21671;SDS011;10997;52.242;8.168;2024-01-30T18:25:27;3.95;;;2.25;;
21671;SDS011;10997;52.242;8.168;2024-01-30T18:30:28;3.15;;;2.45;;
21671;SDS011;10997;52.242;8.168;2024-01-30T18:35:29;9.40;;;2.97;;
21671;SDS011;10997;52.242;8.168;2024-01-30T18:40:29;5.22;;;3.67;;
21671;SDS011;10997;52.242;8.168;2024-01-30T18:45:31;7.97;;;4.13;;
21671;SDS011;10997;52.242;8.168;2024-01-30T18:50:32;5.50;;;4.13;;
21671;SDS011;10997;52.242;8.168;2024-01-30T18:55:33;8.07;;;5.22;;
21671;SDS011;10997;52.242;8.168;2024-01-30T19:00:33;8.40;;;5.07;;
21671;SDS011;10997;52.242;8.168;2024-01-30T19:05:36;8.85;;;5.78;;
21671;SDS011;10997;52.242;8.168;2024-01-30T19:10:36;9.68;;;5.50;;
21671;SDS011;10997;52.242;8.168;2024-01-30T19:15:37;8.55;;;5.75;;
21671;SDS011;10997;52.242;8.168;2024-01-30T19:20:38;10.73;;;6.28;;
21671;SDS011;10997;52.242;8.168;2024-01-30T19:25:38;9.23;;;6.70;;
21671;SDS011;10997;52.242;8.168;2024-01-30T19:30:39;11.52;;;7.03;;
21671;SDS011;10997;52.242;8.168;2024-01-30T19:35:40;13.00;;;8.05;;
21671;SDS011;10997;52.242;8.168;2024-01-30T19:40:41;11.55;;;8.10;;
21671;SDS011;10997;52.242;8.168;2024-01-30T19:45:42;11.88;;;8.38;;
21671;SDS011;10997;52.242;8.168;2024-01-30T19:50:42;12.23;;;8.45;;
21671;SDS011;10997;52.242;8.168;2024-01-30T19:55:43;13.73;;;9.35;;
21671;SDS011;10997;52.242;8.168;2024-01-30T20:00:45;12.57;;;8.98;;
21671;SDS011;10997;52.242;8.168;2024-01-30T20:05:46;14.70;;;9.77;;
21671;SDS011;10997;52.242;8.168;2024-01-30T20:10:47;16.52;;;10.60;;
21671;SDS011;10997;52.242;8.168;2024-01-30T20:15:47;15.57;;;9.73;;
21671;SDS011;10997;52.242;8.168;2024-01-30T20:20:50;17.30;;;11.13;;
21671;SDS011;10997;52.242;8.168;2024-01-30T20:25:50;16.77;;;10.93;;
21671;SDS011;10997;52.242;8.168;2024-01-30T20:30:51;19.45;;;11.63;;
21671;SDS011;10997;52.242;8.168;2024-01-30T20:35:51;16.88;;;10.75;;
21671;SDS011;10997;52.242;8.168;2024-01-30T20:40:52;20.75;;;11.50;;
21671;SDS011;10997;52.242;8.168;2024-01-30T20:45:52;20.42;;;11.73;;
21671;SDS011;10997;52.242;8.168;2024-01-30T20:50:54;21.20;;;12.63;;
21671;SDS011;10997;52.242;8.168;2024-01-30T20:55:55;19.65;;;11.70;;
21671;SDS011;10997;52.242;8.168;2024-01-30T21:00:55;19.20;;;11.60;;
21671;SDS011;10997;52.242;8.168;2024-01-30T21:05:56;18.60;;;11.18;;
21671;SDS011;10997;52.242;8.168;2024-01-30T21:10:58;21.20;;;12.13;;
21671;SDS011;10997;52.242;8.168;2024-01-30T21:15:59;21.52;;;13.32;;
21671;SDS011;10997;52.242;8.168;2024-01-30T21:21:00;10.52;;;6.68;;
21671;SDS011;10997;52.242;8.168;2024-01-30T21:26:01;7.13;;;4.90;;
21671;SDS011;10997;52.242;8.168;2024-01-30T21:31:03;7.47;;;3.72;;
21671;SDS011;10997;52.242;8.168;2024-01-30T21:36:07;6.70;;;3.70;;
21671;SDS011;10997;52.242;8.168;2024-01-30T21:41:08;6.03;;;3.90;;
21671;SDS011;10997;52.242;8.168;2024-01-30T21:46:09;7.35;;;3.85;;
21671;SDS011;10997;52.242;8.168;2024-01-30T21:51:10;7.85;;;4.32;;
21671;SDS011;10997;52.242;8.168;2024-01-30T21:56:10;9.20;;;5.28;;
21671;SDS011;10997;52.242;8.168;2024-01-30T22:01:11;8.38;;;4.60;;
21671;SDS011;10997;52.242;8.168;2024-01-30T22:06:11;7.53;;;5.30;;
21671;SDS011;10997;52.242;8.168;2024-01-30T22:11:13;11.93;;;5.32;;
21671;SDS011;10997;52.242;8.168;2024-01-30T22:16:14;10.40;;;6.00;;
21671;SDS011;10997;52.242;8.168;2024-01-30T22:21:15;11.23;;;5.85;;
21671;SDS011;10997;52.242;8.168;2024-01-30T22:26:15;10.05;;;5.50;;
21671;SDS011;10997;52.242;8.168;2024-01-30T22:31:16;10.07;;;5.78;;
21671;SDS011;10997;52.242;8.168;2024-01-30T22:36:16;13.68;;;6.18;;
21671;SDS011;10997;52.242;8.168;2024-01-30T22:41:21;5.47;;;4.53;;
21671;SDS011;10997;52.242;8.168;2024-01-30T22:46:24;4.78;;;3.17;;
21671;SDS011;10997;52.242;8.168;2024-01-30T22:51:25;5.70;;;3.30;;
21671;SDS011;10997;52.242;8.168;2024-01-30T22:56:25;5.82;;;3.30;;
21671;SDS011;10997;52.242;8.168;2024-01-30T23:01:26;6.28;;;3.80;;
21671;SDS011;10997;52.242;8.168;2024-01-30T23:06:27;6.15;;;3.35;;
21671;SDS011;10997;52.242;8.168;2024-01-30T23:11:28;7.28;;;3.30;;
21671;SDS011;10997;52.242;8.168;2024-01-30T23:16:28;7.15;;;3.58;;
21671;SDS011;10997;52.242;8.168;2024-01-30T23:21:29;7.22;;;2.20;;
21671;SDS011;10997;52.242;8.168;2024-01-30T23:26:30;5.70;;;2.40;;
21671;SDS011;10997;52.242;8.168;2024-01-30T23:31:30;4.97;;;1.80;;
21671;SDS011;10997;52.242;8.168;2024-01-30T23:36:31;6.00;;;2.42;;
21671;SDS011;10997;52.242;8.168;2024-01-30T23:41:33;7.43;;;2.40;;
21671;SDS011;10997;52.242;8.168;2024-01-30T23:46:34;7.38;;;2.67;;
21671;SDS011;10997;52.242;8.168;2024-01-30T23:51:34;6.00;;;2.65;;
21671;SDS011;10997;52.242;8.168;2024-01-30T23:56:38;4.97;;;2.53;;
